Cambria, Virginia
Current Conditions -  °F | °C
As of 6:55 AM on Thursday 27 Nov 2014 (Local Time) from KBCB Reporting Station
Light Snow Light Snow  
Wind Chill: 34°   Ceiling: 200
Heat Index: 34°   Visibility: 2mi
Dew Point: 34°   Wind: 0mph
Humidity: 100%   Direction: NA
Pressure: 29.99"   Gusts: NA
Location:  37.1278°N, 80.4251°W
Report Text: KBCB 271155Z AUTO 00000KT 2SM -SN BKN002 OVC020 01/01 A2999 RMK AO2
Loading
Personal Weather Stations






























Interactive Weather Map New forecast layout! Learn more

10-Day Weather Forecast

Advertisements
Track Severe Weather on mobile